Carrier Princess — CZ3582 — position and weather

sailwx.info

Track history (hours):
 
Tides and Currents Weather Stations Pressure Air Temp Water Temp Dewpoint Dewpoint Depression Visibility Wind Speed Wind Dir Waves Ship Positions

Carrier Princess

Last reported at 2017-Apr-22 15:27 UTC. Time now 2017-Apr-29 19:26 UTC.
Position N 49°09' W 123°02'.

Length 112 m; draft 3 m.

Type: Cargo ship. MMSI: 316003656.

Date/timePositionNaut miles runAvg speedWind from/ knotsBaromVisibWave heightAir tempDewpointWater temp
2017-Apr-22 15:27N 49°09' W 123°02'0 0.2
2017-Apr-22 15:00N 49°09' W 123°02'0 0.0
2017-Apr-22 14:30N 49°09' W 123°02'7 6.6
2017-Apr-22 13:30N 49°07' W 123°12'611.1
2017-Apr-22 13:00N 49°04' W 123°19'714.2
2017-Apr-22 12:30N 48°57' W 123°17'612.0
2017-Apr-22 12:00N 48°52' W 123°21'713.5
2017-Apr-22 11:30N 48°45' W 123°22'4 7.8
2017-Apr-22 11:00N 48°41' W 123°24'0 0.0
2017-Apr-22 10:30N 48°41' W 123°24'0 0.0
2017-Apr-22 10:00N 48°41' W 123°24'0 0.0
2017-Apr-22 09:30N 48°41' W 123°24'0 0.0
2017-Apr-22 09:00N 48°41' W 123°24'3 5.5
2017-Apr-22 08:30N 48°43' W 123°21'714.1
2017-Apr-22 08:00N 48°50' W 123°21'510.6
2017-Apr-22 07:30N 48°55' W 123°18'714.1
2017-Apr-22 07:00N 49°02' W 123°19'612.1
2017-Apr-22 06:30N 49°07' W 123°15'713.6
2017-Apr-22 06:00N 49°07' W 123°05'2 4.6
2017-Apr-22 05:30N 49°09' W 123°02'0 0.0
2017-Apr-22 05:00N 49°09' W 123°02'0 0.1
2017-Apr-22 04:30N 49°09' W 123°02'0 0.0
2017-Apr-22 04:00N 49°09' W 123°02'0 0.0
2017-Apr-22 03:30N 49°09' W 123°02'0 0.0
2017-Apr-22 03:00N 49°09' W 123°02'0 0.0
2017-Apr-22 02:30N 49°09' W 123°02'0 0.0
2017-Apr-22 02:00N 49°09' W 123°02'0 0.0
2017-Apr-22 01:30N 49°09' W 123°02'0 0.0
2017-Apr-22 01:00N 49°09' W 123°02'0 0.0
2017-Apr-22 00:30N 49°09' W 123°02'0 0.0
2017-Apr-22 00:00N 49°09' W 123°02'0 0.0
2017-Apr-21 23:30N 49°09' W 123°02'0 0.0
2017-Apr-21 23:00N 49°09' W 123°02'0 0.0
2017-Apr-21 22:30N 49°09' W 123°02'0 0.0
2017-Apr-21 22:00N 49°09' W 123°02'0 0.0
2017-Apr-21 21:30N 49°09' W 123°02'0 0.0
2017-Apr-21 21:00N 49°09' W 123°02'0 0.0
2017-Apr-21 20:30N 49°09' W 123°02'0 0.0
2017-Apr-21 20:00N 49°09' W 123°02'0 0.0
2017-Apr-21 19:30N 49°09' W 123°02'0 0.0
2017-Apr-21 19:00N 49°09' W 123°02'0 0.0
2017-Apr-21 18:30N 49°09' W 123°02'0 0.0
2017-Apr-21 18:00N 49°09' W 123°02'0 0.0
2017-Apr-21 17:30N 49°09' W 123°02'0 0.0
2017-Apr-21 17:00N 49°09' W 123°02'0 0.0
2017-Apr-21 16:30N 49°09' W 123°02'0 0.0
2017-Apr-21 16:00N 49°09' W 123°02'0 0.1
2017-Apr-21 15:30N 49°09' W 123°02'0 0.0
2017-Apr-21 15:00N 49°09' W 123°02'1 1.1
2017-Apr-21 14:30N 49°08' W 123°03'1111.3
2017-Apr-21 13:30N 49°05' W 123°19'713.4
2017-Apr-21 13:00N 48°59' W 123°16'612.7
2017-Apr-21 12:30N 48°53' W 123°18'4 8.2
2017-Apr-21 12:00N 48°49' W 123°20'611.7
2017-Apr-21 11:30N 48°44' W 123°24'2 4.5
2017-Apr-21 11:00N 48°41' W 123°24'0 0.0
2017-Apr-21 10:30N 48°41' W 123°24'0 0.0
2017-Apr-21 10:00N 48°41' W 123°24'0 0.0
2017-Apr-21 09:30N 48°41' W 123°24'1 1.3
2017-Apr-21 09:00N 48°42' W 123°24'612.7
2017-Apr-21 08:30N 48°48' W 123°21'611.0
2017-Apr-21 07:59N 48°53' W 123°18'714.2
2017-Apr-21 07:30N 48°60' W 123°20'611.7
2017-Apr-21 07:00N 49°06' W 123°20'612.2
2017-Apr-21 06:30N 49°07' W 123°11'611.5
2017-Apr-21 06:01N 49°09' W 123°02'0 0.4
2017-Apr-21 05:30N 49°09' W 123°02'0 0.0
2017-Apr-21 05:00N 49°09' W 123°02'0 0.1
2017-Apr-21 04:30N 49°09' W 123°02'0 0.0
2017-Apr-21 04:00N 49°09' W 123°02'0 0.0
2017-Apr-21 03:30N 49°09' W 123°02'0 0.0
2017-Apr-21 03:00N 49°09' W 123°02'0 0.0
2017-Apr-21 02:30N 49°09' W 123°02'0 0.0
2017-Apr-21 02:00N 49°09' W 123°02'0 0.0
2017-Apr-21 01:30N 49°09' W 123°02'0 0.0
2017-Apr-21 01:00N 49°09' W 123°02'0 0.0
2017-Apr-21 00:30N 49°09' W 123°02'0 0.0
2017-Apr-21 00:00N 49°09' W 123°02'0 0.0
2017-Apr-20 23:30N 49°09' W 123°02'0 0.0
2017-Apr-20 23:00N 49°09' W 123°02'0 0.0
2017-Apr-20 22:30N 49°09' W 123°02'0 0.0
2017-Apr-20 22:00N 49°09' W 123°02'0 0.0
2017-Apr-20 21:30N 49°09' W 123°02'0 0.0
2017-Apr-20 21:00N 49°09' W 123°02'0 0.0
2017-Apr-20 20:30N 49°09' W 123°02'0 0.0
2017-Apr-20 20:00N 49°09' W 123°02'0 0.0
2017-Apr-20 19:30N 49°09' W 123°02'0 0.0
2017-Apr-20 19:00N 49°09' W 123°02'0 0.0
2017-Apr-20 18:30N 49°09' W 123°02'0 0.0
2017-Apr-20 18:00N 49°09' W 123°02'0 0.0
2017-Apr-20 17:30N 49°09' W 123°02'0 0.0
2017-Apr-20 17:00N 49°09' W 123°02'0 0.0
2017-Apr-20 16:30N 49°09' W 123°02'0 0.2
2017-Apr-20 16:00N 49°09' W 123°02'0 0.1
2017-Apr-20 15:30N 49°09' W 123°02'0 0.0
2017-Apr-20 15:00N 49°09' W 123°02'0 0.4
2017-Apr-20 14:30N 49°09' W 123°02'9 9.1
2017-Apr-20 13:30N 49°07' W 123°16'610.9
2017-Apr-20 13:00N 49°02' W 123°20'713.2
2017-Apr-20 12:30N 48°55' W 123°18'5 9.4
2017-Apr-20 11:59N 48°51' W 123°21'611.9
2017-Apr-20 11:30N 48°45' W 123°22'4 8.5
2017-Apr-20 11:00N 48°41' W 123°24'0 0.0
2017-Apr-20 10:30N 48°41' W 123°24'0 0.0
2017-Apr-20 10:00N 48°41' W 123°24'0 0.0
2017-Apr-20 09:30N 48°41' W 123°24'0 0.8
2017-Apr-20 09:00N 48°42' W 123°24'611.7
2017-Apr-20 08:30N 48°47' W 123°21'510.6
2017-Apr-20 08:01N 48°52' W 123°18'713.5
2017-Apr-20 07:30N 48°59' W 123°20'713.1
2017-Apr-20 07:00N 49°05' W 123°19'611.9
2017-Apr-20 06:31N 49°07' W 123°11'611.6
2017-Apr-20 06:00N 49°09' W 123°02'0 0.1
2017-Apr-20 05:30N 49°09' W 123°02'0 0.1
2017-Apr-20 05:00N 49°09' W 123°02'0 0.0
2017-Apr-20 04:30N 49°09' W 123°02'0 0.0
2017-Apr-20 04:00N 49°09' W 123°02'0 0.0
2017-Apr-20 03:30N 49°09' W 123°02'0 0.0
2017-Apr-20 03:00N 49°09' W 123°02'0 0.0
2017-Apr-20 02:30N 49°09' W 123°02'0 0.0
2017-Apr-20 02:00N 49°09' W 123°02'0 0.0
2017-Apr-20 01:30N 49°09' W 123°02'0 0.0
2017-Apr-20 01:00N 49°09' W 123°02'0 0.0
2017-Apr-20 00:30N 49°09' W 123°02'0 0.0
2017-Apr-20 00:00N 49°09' W 123°02'0 0.0
2017-Apr-19 23:30N 49°09' W 123°02'0 0.0
2017-Apr-19 23:00N 49°09' W 123°02'0 0.0
2017-Apr-19 22:30N 49°09' W 123°02'0 0.0
2017-Apr-19 22:00N 49°09' W 123°02'0 0.0
2017-Apr-19 21:30N 49°09' W 123°02'0 0.0
2017-Apr-19 21:00N 49°09' W 123°02'0 0.0
2017-Apr-19 20:30N 49°09' W 123°02'0 0.0
2017-Apr-19 20:00N 49°09' W 123°02'0 0.0
2017-Apr-19 19:30N 49°09' W 123°02'0 0.0
2017-Apr-19 19:00N 49°09' W 123°02'0 0.0
2017-Apr-19 18:30N 49°09' W 123°02'0 0.0
2017-Apr-19 18:00N 49°09' W 123°02'0 0.0
2017-Apr-19 17:30N 49°09' W 123°02'0 0.0
2017-Apr-19 17:00N 49°09' W 123°02'0 0.0
2017-Apr-19 16:30N 49°09' W 123°02'0 0.1
2017-Apr-19 16:00N 49°09' W 123°02'0 0.0
2017-Apr-19 15:30N 49°09' W 123°02'0 0.0
2017-Apr-19 15:00N 49°09' W 123°02'0 0.0
2017-Apr-19 14:30N 49°09' W 123°02'7 6.6
2017-Apr-19 13:30N 49°07' W 123°12'510.3
2017-Apr-19 13:00N 49°06' W 123°19'713.4
2017-Apr-19 12:30N 48°59' W 123°19'713.2
2017-Apr-19 12:00N 48°52' W 123°18'4 8.9
2017-Apr-19 11:30N 48°48' W 123°20'612.7
2017-Apr-19 11:01N 48°42' W 123°24'1 1.9
2017-Apr-19 10:30N 48°41' W 123°24'0 0.0
2017-Apr-19 10:00N 48°41' W 123°24'0 0.0
2017-Apr-19 09:30N 48°41' W 123°24'0 0.0
2017-Apr-19 09:00N 48°41' W 123°24'4 8.6
2017-Apr-19 08:30N 48°45' W 123°21'713.3
2017-Apr-19 08:00N 48°52' W 123°20'612.7
2017-Apr-19 07:30N 48°58' W 123°19'713.9
2017-Apr-19 07:00N 49°05' W 123°20'612.7
2017-Apr-19 06:30N 49°07' W 123°11'612.2
2017-Apr-19 06:00N 49°09' W 123°02'0 0.3
2017-Apr-19 05:30N 49°09' W 123°02'0 0.1
2017-Apr-19 05:00N 49°09' W 123°02'0 0.0
2017-Apr-19 04:30N 49°09' W 123°02'0 0.0
2017-Apr-19 04:00N 49°09' W 123°02'0 0.0
2017-Apr-19 03:30N 49°09' W 123°02'0 0.0
2017-Apr-19 03:00N 49°09' W 123°02'0 0.0
2017-Apr-19 02:30N 49°09' W 123°02'0 0.0
2017-Apr-19 02:00N 49°09' W 123°02'0 0.0
2017-Apr-19 01:30N 49°09' W 123°02'0 0.0
2017-Apr-19 01:00N 49°09' W 123°02'0 0.0
2017-Apr-19 00:30N 49°09' W 123°02'0 0.0
2017-Apr-19 00:00N 49°09' W 123°02'0 0.0
2017-Apr-18 23:30N 49°09' W 123°02'0 0.0
2017-Apr-18 23:00N 49°09' W 123°02'0 0.0
2017-Apr-18 22:30N 49°09' W 123°02'0 0.0
2017-Apr-18 22:00N 49°09' W 123°02'0 0.0
2017-Apr-18 21:30N 49°09' W 123°02'0 0.0
2017-Apr-18 21:00N 49°09' W 123°02'0 0.0
2017-Apr-18 20:30N 49°09' W 123°02'0 0.0
2017-Apr-18 20:00N 49°09' W 123°02'0 0.0
2017-Apr-18 19:30N 49°09' W 123°02'0 0.0
2017-Apr-18 19:00N 49°09' W 123°02'0 0.0
2017-Apr-18 18:30N 49°09' W 123°02'0 0.0
2017-Apr-18 18:00N 49°09' W 123°02'0 0.0
2017-Apr-18 17:30N 49°09' W 123°02'0 0.0
2017-Apr-18 17:00N 49°09' W 123°02'0 0.0
2017-Apr-18 16:30N 49°09' W 123°02'0 0.1
2017-Apr-18 16:00N 49°09' W 123°02'0 0.0
2017-Apr-18 15:30N 49°09' W 123°02'0 0.0
2017-Apr-18 15:00N 49°09' W 123°02'0 0.0
2017-Apr-18 14:30N 49°09' W 123°02'9 9.2
2017-Apr-18 13:30N 49°07' W 123°16'511.1
2017-Apr-18 13:00N 49°02' W 123°19'713.4
2017-Apr-18 12:30N 48°55' W 123°18'4 8.3
2017-Apr-18 12:00N 48°52' W 123°21'4 8.4
2017-Apr-18 11:30N 48°47' W 123°21'4 8.9
2017-Apr-18 11:00N 48°44' W 123°24'2 4.5
2017-Apr-18 10:30N 48°41' W 123°24'0 0.0
2017-Apr-18 10:00N 48°41' W 123°24'0 0.0
2017-Apr-18 09:30N 48°41' W 123°24'2 3.0
2017-Apr-18 09:01N 48°42' W 123°22'714.5
2017-Apr-18 08:30N 48°49' W 123°21'612.0
2017-Apr-18 08:01N 48°55' W 123°18'714.7
2017-Apr-18 07:31N 49°02' W 123°21'612.0
2017-Apr-18 07:00N 49°07' W 123°16'510.1
2017-Apr-18 06:30N 49°07' W 123°09'5 9.7
2017-Apr-18 06:00N 49°09' W 123°02'0 0.1
2017-Apr-18 05:30N 49°09' W 123°02'0 0.2
2017-Apr-18 05:00N 49°09' W 123°02'0 0.0
2017-Apr-18 04:30N 49°09' W 123°02'0 0.0
2017-Apr-18 04:00N 49°09' W 123°02'0 0.0
2017-Apr-18 03:30N 49°09' W 123°02'0 0.0
2017-Apr-18 03:00N 49°09' W 123°02'0 0.0
2017-Apr-18 02:30N 49°09' W 123°02'0 0.0
2017-Apr-18 02:00N 49°09' W 123°02'0 0.0
2017-Apr-18 01:30N 49°09' W 123°02'0 0.0
2017-Apr-18 01:00N 49°09' W 123°02'0 0.0
2017-Apr-18 00:30N 49°09' W 123°02'0 0.0
2017-Apr-18 00:00N 49°09' W 123°02'0 0.0
2017-Apr-17 23:30N 49°09' W 123°02'0 0.0
2017-Apr-17 23:00N 49°09' W 123°02'0 0.0
2017-Apr-17 22:30N 49°09' W 123°02'0 0.0
2017-Apr-17 22:00N 49°09' W 123°02'0 0.0
2017-Apr-17 21:30N 49°09' W 123°02'0 0.0
2017-Apr-17 21:00N 49°09' W 123°02'0 0.0
2017-Apr-17 20:30N 49°09' W 123°02'0 0.0
2017-Apr-17 20:00N 49°09' W 123°02'0 0.0
2017-Apr-17 19:30N 49°09' W 123°02'0 0.0
2017-Apr-17 19:00N 49°09' W 123°02'0 0.0
2017-Apr-17 18:30N 49°09' W 123°02'0 0.0
2017-Apr-17 18:00N 49°09' W 123°02'0 0.0
2017-Apr-17 17:30N 49°09' W 123°02'0 0.0
2017-Apr-17 17:00N 49°09' W 123°02'0 0.0
2017-Apr-17 16:30N 49°09' W 123°02'0 0.0
2017-Apr-17 16:00N 49°09' W 123°02'0 0.0
2017-Apr-17 15:30N 49°09' W 123°02'0 0.0
2017-Apr-17 15:00N 49°09' W 123°02'0 0.0
2017-Apr-17 14:00N 49°09' W 123°02'0 0.0
2017-Apr-17 13:30N 49°09' W 123°02'0 0.0
2017-Apr-17 13:00N 49°09' W 123°02'0 0.0
2017-Apr-17 12:30N 49°09' W 123°02'0 0.0
2017-Apr-17 12:00N 49°09' W 123°02'0 0.0
2017-Apr-17 11:30N 49°09' W 123°02'0 0.0
2017-Apr-17 11:00N 49°09' W 123°02'0 0.0
2017-Apr-17 10:30N 49°09' W 123°02'0 0.0
2017-Apr-17 10:00N 49°09' W 123°02'0 0.0
2017-Apr-17 09:30N 49°09' W 123°02'0 0.0
2017-Apr-17 09:00N 49°09' W 123°02'0 0.0
2017-Apr-17 08:30N 49°09' W 123°02'0 0.0
2017-Apr-17 08:00N 49°09' W 123°02'0 0.0
2017-Apr-17 07:30N 49°09' W 123°02'0 0.0
2017-Apr-17 07:00N 49°09' W 123°02'0 0.0
2017-Apr-17 06:30N 49°09' W 123°02'0 0.0
2017-Apr-17 06:00N 49°09' W 123°02'0 0.0
2017-Apr-17 05:30N 49°09' W 123°02'0 0.0
2017-Apr-17 05:00N 49°09' W 123°02'0 0.0
2017-Apr-17 04:30N 49°09' W 123°02'0 0.0
2017-Apr-17 04:00N 49°09' W 123°02'0 0.0
2017-Apr-17 03:30N 49°09' W 123°02'0 0.0
2017-Apr-17 03:00N 49°09' W 123°02'0 0.0
2017-Apr-17 02:30N 49°09' W 123°02'0 0.0
2017-Apr-17 02:00N 49°09' W 123°02'0 0.0
2017-Apr-17 01:30N 49°09' W 123°02'0 0.0
2017-Apr-17 01:00N 49°09' W 123°02'0 0.0
2017-Apr-17 00:30N 49°09' W 123°02'0 0.0
2017-Apr-17 00:00N 49°09' W 123°02'0 0.0
2017-Apr-16 23:30N 49°09' W 123°02'0 0.0
2017-Apr-16 23:00N 49°09' W 123°02'0 0.0
2017-Apr-16 22:30N 49°09' W 123°02'0 0.0
2017-Apr-16 22:00N 49°09' W 123°02'0 0.0
2017-Apr-16 21:30N 49°09' W 123°02'0 0.0
2017-Apr-16 21:00N 49°09' W 123°02'0 0.0
2017-Apr-16 20:30N 49°09' W 123°02'0 0.0
2017-Apr-16 20:00N 49°09' W 123°02'0 0.0
2017-Apr-16 19:30N 49°09' W 123°02'0 0.0
2017-Apr-16 19:00N 49°09' W 123°02'0 0.0
2017-Apr-16 18:30N 49°09' W 123°02'0 0.0
2017-Apr-16 18:00N 49°09' W 123°02'0 0.0
2017-Apr-16 17:30N 49°09' W 123°02'0 0.0
2017-Apr-16 17:00N 49°09' W 123°02'0 0.0
2017-Apr-16 16:30N 49°09' W 123°02'0 0.0
2017-Apr-16 16:00N 49°09' W 123°02'0 0.0
2017-Apr-16 15:30N 49°09' W 123°02'0 0.0
2017-Apr-16 15:00N 49°09' W 123°02'0 0.0
2017-Apr-16 14:00N 49°09' W 123°02'0 0.0
2017-Apr-16 13:30N 49°09' W 123°02'0 0.0
2017-Apr-16 13:00N 49°09' W 123°02'0 0.0
2017-Apr-16 12:30N 49°09' W 123°02'0 0.0
2017-Apr-16 12:00N 49°09' W 123°02'0 0.0
2017-Apr-16 11:30N 49°09' W 123°02'0 0.0
2017-Apr-16 11:00N 49°09' W 123°02'0 0.0
2017-Apr-16 10:30N 49°09' W 123°02'0 0.0
2017-Apr-16 10:00N 49°09' W 123°02'0 0.0
2017-Apr-16 09:30N 49°09' W 123°02'0 0.0
2017-Apr-16 09:00N 49°09' W 123°02'0 0.0
2017-Apr-16 08:30N 49°09' W 123°02'0 0.0
2017-Apr-16 08:00N 49°09' W 123°02'0 0.0
2017-Apr-16 07:30N 49°09' W 123°02'0 0.0
2017-Apr-16 07:00N 49°09' W 123°02'0 0.0
2017-Apr-16 06:30N 49°09' W 123°02'0 0.0
2017-Apr-16 06:00N 49°09' W 123°02'0 0.0
2017-Apr-16 05:30N 49°09' W 123°02'0 0.0
2017-Apr-16 05:00N 49°09' W 123°02'0 0.0
2017-Apr-16 04:30N 49°09' W 123°02'0 0.0
2017-Apr-16 04:00N 49°09' W 123°02'0 0.0
2017-Apr-16 03:30N 49°09' W 123°02'0 0.0
2017-Apr-16 03:00N 49°09' W 123°02'0 0.0
2017-Apr-16 02:30N 49°09' W 123°02'0 0.0
2017-Apr-16 02:00N 49°09' W 123°02'0 0.0
2017-Apr-16 01:30N 49°09' W 123°02'0 0.0
2017-Apr-16 01:00N 49°09' W 123°02'0 0.0
2017-Apr-16 00:30N 49°09' W 123°02'0 0.0
2017-Apr-16 00:00N 49°09' W 123°02'0 0.0
2017-Apr-15 23:30N 49°09' W 123°02'0 0.0
2017-Apr-15 23:00N 49°09' W 123°02'0 0.0
2017-Apr-15 22:30N 49°09' W 123°02'0 0.0
2017-Apr-15 22:00N 49°09' W 123°02'0 0.0
2017-Apr-15 21:30N 49°09' W 123°02'0 0.0
2017-Apr-15 21:00N 49°09' W 123°02'0 0.0
2017-Apr-15 20:30N 49°09' W 123°02'0 0.0
2017-Apr-15 20:00N 49°09' W 123°02'0 0.0
2017-Apr-15 19:30N 49°09' W 123°02'0 0.0
2017-Apr-15 19:00N 49°09' W 123°02'0 0.0
2017-Apr-15 18:30N 49°09' W 123°02'0 0.0
2017-Apr-15 18:00N 49°09' W 123°02'0 0.0
2017-Apr-15 17:30N 49°09' W 123°02'0 0.0
2017-Apr-15 17:00N 49°09' W 123°02'0 0.0
2017-Apr-15 16:30N 49°09' W 123°02'0 0.0
2017-Apr-15 16:00N 49°09' W 123°02'0 0.0
2017-Apr-15 15:30N 49°09' W 123°02'0 0.0
2017-Apr-15 15:00N 49°09' W 123°02'0 0.0
2017-Apr-15 14:30N 49°09' W 123°02'0 0.0
2017-Apr-15 13:30N 49°09' W 123°02'0 0.0
2017-Apr-15 13:00N 49°09' W 123°02'0 0.0
2017-Apr-15 12:30N 49°09' W 123°02'0 0.0
2017-Apr-15 12:00N 49°09' W 123°02'0 0.0
2017-Apr-15 11:30N 49°09' W 123°02'0 0.0
2017-Apr-15 11:00N 49°09' W 123°02'0 0.0
2017-Apr-15 10:30N 49°09' W 123°02'0 0.0
2017-Apr-15 10:00N 49°09' W 123°02'0 0.0
2017-Apr-15 09:30N 49°09' W 123°02'0 0.0
2017-Apr-15 09:00N 49°09' W 123°02'0 0.0
2017-Apr-15 08:30N 49°09' W 123°02'0 0.0
2017-Apr-15 08:00N 49°09' W 123°02'0 0.0
2017-Apr-15 07:30N 49°09' W 123°02'0 0.0
2017-Apr-15 07:00N 49°09' W 123°02'0 0.0
2017-Apr-15 06:30N 49°09' W 123°02'0 0.0
2017-Apr-15 06:00N 49°09' W 123°02'0 0.0
2017-Apr-15 05:30N 49°09' W 123°02'0 0.0
2017-Apr-15 05:00N 49°09' W 123°02'0 0.0
2017-Apr-15 04:30N 49°09' W 123°02'0 0.0
2017-Apr-15 04:00N 49°09' W 123°02'0 0.0
2017-Apr-15 03:30N 49°09' W 123°02'0 0.0
2017-Apr-15 03:00N 49°09' W 123°02'0 0.0
2017-Apr-15 02:30N 49°09' W 123°02'0 0.0
2017-Apr-15 02:00N 49°09' W 123°02'0 0.0
2017-Apr-15 01:30N 49°09' W 123°02'0 0.0
2017-Apr-15 01:00N 49°09' W 123°02'0 0.0
2017-Apr-15 00:30N 49°09' W 123°02'0 0.0
2017-Apr-15 00:00N 49°09' W 123°02'0 0.0
2017-Apr-14 23:30N 49°09' W 123°02'0 0.0
2017-Apr-14 23:00N 49°09' W 123°02'0 0.0
2017-Apr-14 22:30N 49°09' W 123°02'0 0.0
2017-Apr-14 22:00N 49°09' W 123°02'0 0.0
2017-Apr-14 21:30N 49°09' W 123°02'0 0.0
2017-Apr-14 21:00N 49°09' W 123°02'0 0.0
2017-Apr-14 20:30N 49°09' W 123°02'0 0.0
2017-Apr-14 20:00N 49°09' W 123°02'0 0.0
2017-Apr-14 19:30N 49°09' W 123°02'0 0.0
2017-Apr-14 19:00N 49°09' W 123°02'0 0.0
2017-Apr-14 18:30N 49°09' W 123°02'0 0.0
2017-Apr-14 18:00N 49°09' W 123°02'0 0.0
2017-Apr-14 17:30N 49°09' W 123°02'0 0.0
2017-Apr-14 17:00N 49°09' W 123°02'0 0.0
2017-Apr-14 16:30N 49°09' W 123°02'0 0.0
2017-Apr-14 16:00N 49°09' W 123°02'0 0.0
2017-Apr-14 15:30N 49°09' W 123°02'0 0.0
2017-Apr-14 15:00N 49°09' W 123°02'0 0.1
2017-Apr-14 14:30N 49°09' W 123°02'1 0.9
2017-Apr-14 13:30N 49°08' W 123°03'611.7
2017-Apr-14 13:00N 49°07' W 123°12'612.3
2017-Apr-14 12:30N 49°04' W 123°20'815.8
2017-Apr-14 12:01N 48°56' W 123°19'612.6
2017-Apr-14 11:30N 48°50' W 123°21'714.6
2017-Apr-14 11:01N 48°43' W 123°24'2 3.9
2017-Apr-14 10:30N 48°41' W 123°24'0 0.0
2017-Apr-14 10:00N 48°41' W 123°24'0 0.0
2017-Apr-14 09:30N 48°41' W 123°24'0 0.1
2017-Apr-14 09:00N 48°41' W 123°24'5 9.2
2017-Apr-14 08:30N 48°45' W 123°21'612.8
2017-Apr-14 08:00N 48°52' W 123°19'714.9
2017-Apr-14 07:30N 48°59' W 123°18'714.6
2017-Apr-14 07:00N 49°06' W 123°18'714.0
2017-Apr-14 06:30N 49°07' W 123°07'4 8.3
2017-Apr-14 06:01N 49°09' W 123°02'0 0.0
2017-Apr-14 05:31N 49°09' W 123°02'0 0.0
2017-Apr-14 05:01N 49°09' W 123°02'0 0.1
2017-Apr-14 04:30N 49°09' W 123°02'0 0.0
2017-Apr-14 04:00N 49°09' W 123°02'0 0.0
2017-Apr-14 03:30N 49°09' W 123°02'0 0.0
2017-Apr-14 03:01N 49°09' W 123°02'0 0.0
2017-Apr-14 02:30N 49°09' W 123°02'0 0.0
2017-Apr-14 02:00N 49°09' W 123°02'0 0.0
2017-Apr-14 01:30N 49°09' W 123°02'0 0.0
2017-Apr-14 01:01N 49°09' W 123°02'0 0.0
2017-Apr-14 00:31N 49°09' W 123°02'0 0.0
2017-Apr-14 00:01N 49°09' W 123°02'0 0.0
2017-Apr-13 23:31N 49°09' W 123°02'0 0.0
2017-Apr-13 23:00N 49°09' W 123°02'0 0.0
2017-Apr-13 22:31N 49°09' W 123°02'0 0.0
2017-Apr-13 22:00N 49°09' W 123°02'0 0.0
2017-Apr-13 21:30N 49°09' W 123°02'0 0.0
2017-Apr-13 21:00N 49°09' W 123°02'0 0.0
2017-Apr-13 20:31N 49°09' W 123°02'0 0.0
2017-Apr-13 20:00N 49°09' W 123°02'0 0.0
2017-Apr-13 19:31N 49°09' W 123°02'0 0.0
2017-Apr-13 19:01N 49°09' W 123°02'0 0.0
2017-Apr-13 18:31N 49°09' W 123°02'0 0.0
2017-Apr-13 18:01N 49°09' W 123°02'0 0.0
2017-Apr-13 17:31N 49°09' W 123°02'0 0.1
2017-Apr-13 17:01N 49°09' W 123°02'0 0.0
2017-Apr-13 16:31N 49°09' W 123°02'0 0.0
2017-Apr-13 16:01N 49°09' W 123°02'0 0.0
2017-Apr-13 15:31N 49°09' W 123°02'0 0.0
2017-Apr-13 15:00N 49°09' W 123°02'0 0.0
2017-Apr-13 14:30N 49°09' W 123°02'4 4.3
2017-Apr-13 13:30N 49°06' W 123°08'612.9
2017-Apr-13 13:00N 49°06' W 123°18'714.1
2017-Apr-13 12:30N 48°59' W 123°19'815.3
2017-Apr-13 12:00N 48°52' W 123°19'611.8
2017-Apr-13 11:30N 48°46' W 123°21'510.6
2017-Apr-13 11:00N 48°41' W 123°24'0 0.0
2017-Apr-13 10:30N 48°41' W 123°24'0 0.0
2017-Apr-13 10:00N 48°41' W 123°24'0 0.0
2017-Apr-13 09:30N 48°41' W 123°24'0 0.0
2017-Apr-13 09:00N 48°41' W 123°24'4 7.9
2017-Apr-13 08:30N 48°44' W 123°21'714.5
2017-Apr-13 08:01N 48°52' W 123°21'612.4
2017-Apr-13 07:31N 48°58' W 123°18'815.0
2017-Apr-13 07:01N 49°05' W 123°20'611.9
2017-Apr-13 06:30N 49°07' W 123°11'612.3
2017-Apr-13 06:00N 49°09' W 123°02'0 0.1
2017-Apr-13 05:30N 49°09' W 123°02'0 0.0
2017-Apr-13 05:00N 49°09' W 123°02'0 0.1
2017-Apr-13 04:30N 49°09' W 123°02'0 0.0
2017-Apr-13 04:00N 49°09' W 123°02'0 0.0
2017-Apr-13 03:30N 49°09' W 123°02'0 0.0
2017-Apr-13 03:00N 49°09' W 123°02'0 0.0
2017-Apr-13 02:30N 49°09' W 123°02'0 0.0
2017-Apr-13 02:00N 49°09' W 123°02'0 0.0
2017-Apr-13 01:30N 49°09' W 123°02'0 0.0
2017-Apr-13 01:00N 49°09' W 123°02'0 0.0
2017-Apr-13 00:30N 49°09' W 123°02'0 0.0
2017-Apr-13 00:00N 49°09' W 123°02'0 0.0
2017-Apr-12 23:30N 49°09' W 123°02'0 0.0
2017-Apr-12 23:00N 49°09' W 123°02'0 0.0
2017-Apr-12 22:30N 49°09' W 123°02'0 0.0
2017-Apr-12 22:00N 49°09' W 123°02'0 0.0
2017-Apr-12 21:30N 49°09' W 123°02'0 0.0
2017-Apr-12 21:00N 49°09' W 123°02'0 0.0
2017-Apr-12 20:30N 49°09' W 123°02'0 0.0
2017-Apr-12 20:00N 49°09' W 123°02'0 0.0
2017-Apr-12 19:30N 49°09' W 123°02'0 0.0
2017-Apr-12 19:00N 49°09' W 123°02'0 0.0
2017-Apr-12 18:30N 49°09' W 123°02'0 0.0
2017-Apr-12 18:00N 49°09' W 123°02'0 0.0
2017-Apr-12 17:30N 49°09' W 123°02'0 0.0
2017-Apr-12 17:00N 49°09' W 123°02'0 0.0
2017-Apr-12 16:30N 49°09' W 123°02'0 0.2
2017-Apr-12 16:00N 49°09' W 123°02'0 0.1
2017-Apr-12 15:30N 49°09' W 123°02'  
Track history (hours):
 
Tides and Currents Weather Stations Pressure Air Temp Water Temp Dewpoint Dewpoint Depression Visibility Wind Speed Wind Dir Waves Ship Positions

Carrier Princess

Last reported at 2017-Apr-22 15:27 UTC. Time now 2017-Apr-29 19:26 UTC.
Position N 49°09' W 123°02'.

Length 112 m; draft 3 m.

Type: Cargo ship. MMSI: 316003656.

Date/timePositionNaut miles runAvg speedWind from/ knotsBaromVisibWave heightAir tempDewpointWater temp
2017-Apr-22 15:27N 49°09' W 123°02'0 0.2
2017-Apr-22 15:00N 49°09' W 123°02'0 0.0
2017-Apr-22 14:30N 49°09' W 123°02'7 6.6
2017-Apr-22 13:30N 49°07' W 123°12'611.1
2017-Apr-22 13:00N 49°04' W 123°19'714.2
2017-Apr-22 12:30N 48°57' W 123°17'612.0
2017-Apr-22 12:00N 48°52' W 123°21'713.5
2017-Apr-22 11:30N 48°45' W 123°22'4 7.8
2017-Apr-22 11:00N 48°41' W 123°24'0 0.0
2017-Apr-22 10:30N 48°41' W 123°24'0 0.0
2017-Apr-22 10:00N 48°41' W 123°24'0 0.0
2017-Apr-22 09:30N 48°41' W 123°24'0 0.0
2017-Apr-22 09:00N 48°41' W 123°24'3 5.5
2017-Apr-22 08:30N 48°43' W 123°21'714.1
2017-Apr-22 08:00N 48°50' W 123°21'510.6
2017-Apr-22 07:30N 48°55' W 123°18'714.1
2017-Apr-22 07:00N 49°02' W 123°19'612.1
2017-Apr-22 06:30N 49°07' W 123°15'713.6
2017-Apr-22 06:00N 49°07' W 123°05'2 4.6
2017-Apr-22 05:30N 49°09' W 123°02'0 0.0
2017-Apr-22 05:00N 49°09' W 123°02'0 0.1
2017-Apr-22 04:30N 49°09' W 123°02'0 0.0
2017-Apr-22 04:00N 49°09' W 123°02'0 0.0
2017-Apr-22 03:30N 49°09' W 123°02'0 0.0
2017-Apr-22 03:00N 49°09' W 123°02'0 0.0
2017-Apr-22 02:30N 49°09' W 123°02'0 0.0
2017-Apr-22 02:00N 49°09' W 123°02'0 0.0
2017-Apr-22 01:30N 49°09' W 123°02'0 0.0
2017-Apr-22 01:00N 49°09' W 123°02'0 0.0
2017-Apr-22 00:30N 49°09' W 123°02'0 0.0
2017-Apr-22 00:00N 49°09' W 123°02'0 0.0
2017-Apr-21 23:30N 49°09' W 123°02'0 0.0
2017-Apr-21 23:00N 49°09' W 123°02'0 0.0
2017-Apr-21 22:30N 49°09' W 123°02'0 0.0
2017-Apr-21 22:00N 49°09' W 123°02'0 0.0
2017-Apr-21 21:30N 49°09' W 123°02'0 0.0
2017-Apr-21 21:00N 49°09' W 123°02'0 0.0
2017-Apr-21 20:30N 49°09' W 123°02'0 0.0
2017-Apr-21 20:00N 49°09' W 123°02'0 0.0
2017-Apr-21 19:30N 49°09' W 123°02'0 0.0
2017-Apr-21 19:00N 49°09' W 123°02'0 0.0
2017-Apr-21 18:30N 49°09' W 123°02'0 0.0
2017-Apr-21 18:00N 49°09' W 123°02'0 0.0
2017-Apr-21 17:30N 49°09' W 123°02'0 0.0
2017-Apr-21 17:00N 49°09' W 123°02'0 0.0
2017-Apr-21 16:30N 49°09' W 123°02'0 0.0
2017-Apr-21 16:00N 49°09' W 123°02'0 0.1
2017-Apr-21 15:30N 49°09' W 123°02'0 0.0
2017-Apr-21 15:00N 49°09' W 123°02'1 1.1
2017-Apr-21 14:30N 49°08' W 123°03'1111.3
2017-Apr-21 13:30N 49°05' W 123°19'713.4
2017-Apr-21 13:00N 48°59' W 123°16'612.7
2017-Apr-21 12:30N 48°53' W 123°18'4 8.2
2017-Apr-21 12:00N 48°49' W 123°20'611.7
2017-Apr-21 11:30N 48°44' W 123°24'2 4.5
2017-Apr-21 11:00N 48°41' W 123°24'0 0.0
2017-Apr-21 10:30N 48°41' W 123°24'0 0.0
2017-Apr-21 10:00N 48°41' W 123°24'0 0.0
2017-Apr-21 09:30N 48°41' W 123°24'1 1.3
2017-Apr-21 09:00N 48°42' W 123°24'612.7
2017-Apr-21 08:30N 48°48' W 123°21'611.0
2017-Apr-21 07:59N 48°53' W 123°18'714.2
2017-Apr-21 07:30N 48°60' W 123°20'611.7
2017-Apr-21 07:00N 49°06' W 123°20'612.2
2017-Apr-21 06:30N 49°07' W 123°11'611.5
2017-Apr-21 06:01N 49°09' W 123°02'0 0.4
2017-Apr-21 05:30N 49°09' W 123°02'0 0.0
2017-Apr-21 05:00N 49°09' W 123°02'0 0.1
2017-Apr-21 04:30N 49°09' W 123°02'0 0.0
2017-Apr-21 04:00N 49°09' W 123°02'0 0.0
2017-Apr-21 03:30N 49°09' W 123°02'0 0.0
2017-Apr-21 03:00N 49°09' W 123°02'0 0.0
2017-Apr-21 02:30N 49°09' W 123°02'0 0.0
2017-Apr-21 02:00N 49°09' W 123°02'0 0.0
2017-Apr-21 01:30N 49°09' W 123°02'0 0.0
2017-Apr-21 01:00N 49°09' W 123°02'0 0.0
2017-Apr-21 00:30N 49°09' W 123°02'0 0.0
2017-Apr-21 00:00N 49°09' W 123°02'0 0.0
2017-Apr-20 23:30N 49°09' W 123°02'0 0.0
2017-Apr-20 23:00N 49°09' W 123°02'0 0.0
2017-Apr-20 22:30N 49°09' W 123°02'0 0.0
2017-Apr-20 22:00N 49°09' W 123°02'0 0.0
2017-Apr-20 21:30N 49°09' W 123°02'0 0.0
2017-Apr-20 21:00N 49°09' W 123°02'0 0.0
2017-Apr-20 20:30N 49°09' W 123°02'0 0.0
2017-Apr-20 20:00N 49°09' W 123°02'0 0.0
2017-Apr-20 19:30N 49°09' W 123°02'0 0.0
2017-Apr-20 19:00N 49°09' W 123°02'0 0.0
2017-Apr-20 18:30N 49°09' W 123°02'0 0.0
2017-Apr-20 18:00N 49°09' W 123°02'0 0.0
2017-Apr-20 17:30N 49°09' W 123°02'0 0.0
2017-Apr-20 17:00N 49°09' W 123°02'0 0.0
2017-Apr-20 16:30N 49°09' W 123°02'0 0.2
2017-Apr-20 16:00N 49°09' W 123°02'0 0.1
2017-Apr-20 15:30N 49°09' W 123°02'0 0.0
2017-Apr-20 15:00N 49°09' W 123°02'0 0.4
2017-Apr-20 14:30N 49°09' W 123°02'9 9.1
2017-Apr-20 13:30N 49°07' W 123°16'610.9
2017-Apr-20 13:00N 49°02' W 123°20'713.2
2017-Apr-20 12:30N 48°55' W 123°18'5 9.4
2017-Apr-20 11:59N 48°51' W 123°21'611.9
2017-Apr-20 11:30N 48°45' W 123°22'4 8.5
2017-Apr-20 11:00N 48°41' W 123°24'0 0.0
2017-Apr-20 10:30N 48°41' W 123°24'0 0.0
2017-Apr-20 10:00N 48°41' W 123°24'0 0.0
2017-Apr-20 09:30N 48°41' W 123°24'0 0.8
2017-Apr-20 09:00N 48°42' W 123°24'611.7
2017-Apr-20 08:30N 48°47' W 123°21'510.6
2017-Apr-20 08:01N 48°52' W 123°18'713.5
2017-Apr-20 07:30N 48°59' W 123°20'713.1
2017-Apr-20 07:00N 49°05' W 123°19'611.9
2017-Apr-20 06:31N 49°07' W 123°11'611.6
2017-Apr-20 06:00N 49°09' W 123°02'0 0.1
2017-Apr-20 05:30N 49°09' W 123°02'0 0.1
2017-Apr-20 05:00N 49°09' W 123°02'0 0.0
2017-Apr-20 04:30N 49°09' W 123°02'0 0.0
2017-Apr-20 04:00N 49°09' W 123°02'0 0.0
2017-Apr-20 03:30N 49°09' W 123°02'0 0.0
2017-Apr-20 03:00N 49°09' W 123°02'0 0.0
2017-Apr-20 02:30N 49°09' W 123°02'0 0.0
2017-Apr-20 02:00N 49°09' W 123°02'0 0.0
2017-Apr-20 01:30N 49°09' W 123°02'0 0.0
2017-Apr-20 01:00N 49°09' W 123°02'0 0.0
2017-Apr-20 00:30N 49°09' W 123°02'0 0.0
2017-Apr-20 00:00N 49°09' W 123°02'0 0.0
2017-Apr-19 23:30N 49°09' W 123°02'0 0.0
2017-Apr-19 23:00N 49°09' W 123°02'0 0.0
2017-Apr-19 22:30N 49°09' W 123°02'0 0.0
2017-Apr-19 22:00N 49°09' W 123°02'0 0.0
2017-Apr-19 21:30N 49°09' W 123°02'0 0.0
2017-Apr-19 21:00N 49°09' W 123°02'0 0.0
2017-Apr-19 20:30N 49°09' W 123°02'0 0.0
2017-Apr-19 20:00N 49°09' W 123°02'0 0.0
2017-Apr-19 19:30N 49°09' W 123°02'0 0.0
2017-Apr-19 19:00N 49°09' W 123°02'0 0.0
2017-Apr-19 18:30N 49°09' W 123°02'0 0.0
2017-Apr-19 18:00N 49°09' W 123°02'0 0.0
2017-Apr-19 17:30N 49°09' W 123°02'0 0.0
2017-Apr-19 17:00N 49°09' W 123°02'0 0.0
2017-Apr-19 16:30N 49°09' W 123°02'0 0.1
2017-Apr-19 16:00N 49°09' W 123°02'0 0.0
2017-Apr-19 15:30N 49°09' W 123°02'0 0.0
2017-Apr-19 15:00N 49°09' W 123°02'0 0.0
2017-Apr-19 14:30N 49°09' W 123°02'7 6.6
2017-Apr-19 13:30N 49°07' W 123°12'510.3
2017-Apr-19 13:00N 49°06' W 123°19'713.4
2017-Apr-19 12:30N 48°59' W 123°19'713.2
2017-Apr-19 12:00N 48°52' W 123°18'4 8.9
2017-Apr-19 11:30N 48°48' W 123°20'612.7
2017-Apr-19 11:01N 48°42' W 123°24'1 1.9
2017-Apr-19 10:30N 48°41' W 123°24'0 0.0
2017-Apr-19 10:00N 48°41' W 123°24'0 0.0
2017-Apr-19 09:30N 48°41' W 123°24'0 0.0
2017-Apr-19 09:00N 48°41' W 123°24'4 8.6
2017-Apr-19 08:30N 48°45' W 123°21'713.3
2017-Apr-19 08:00N 48°52' W 123°20'612.7
2017-Apr-19 07:30N 48°58' W 123°19'713.9
2017-Apr-19 07:00N 49°05' W 123°20'612.7
2017-Apr-19 06:30N 49°07' W 123°11'612.2
2017-Apr-19 06:00N 49°09' W 123°02'0 0.3
2017-Apr-19 05:30N 49°09' W 123°02'0 0.1
2017-Apr-19 05:00N 49°09' W 123°02'0 0.0
2017-Apr-19 04:30N 49°09' W 123°02'0 0.0
2017-Apr-19 04:00N 49°09' W 123°02'0 0.0
2017-Apr-19 03:30N 49°09' W 123°02'0 0.0
2017-Apr-19 03:00N 49°09' W 123°02'0 0.0
2017-Apr-19 02:30N 49°09' W 123°02'0 0.0
2017-Apr-19 02:00N 49°09' W 123°02'0 0.0
2017-Apr-19 01:30N 49°09' W 123°02'0 0.0
2017-Apr-19 01:00N 49°09' W 123°02'0 0.0
2017-Apr-19 00:30N 49°09' W 123°02'0 0.0
2017-Apr-19 00:00N 49°09' W 123°02'0 0.0
2017-Apr-18 23:30N 49°09' W 123°02'0 0.0
2017-Apr-18 23:00N 49°09' W 123°02'0 0.0
2017-Apr-18 22:30N 49°09' W 123°02'0 0.0
2017-Apr-18 22:00N 49°09' W 123°02'0 0.0
2017-Apr-18 21:30N 49°09' W 123°02'0 0.0
2017-Apr-18 21:00N 49°09' W 123°02'0 0.0
2017-Apr-18 20:30N 49°09' W 123°02'0 0.0
2017-Apr-18 20:00N 49°09' W 123°02'0 0.0
2017-Apr-18 19:30N 49°09' W 123°02'0 0.0
2017-Apr-18 19:00N 49°09' W 123°02'0 0.0
2017-Apr-18 18:30N 49°09' W 123°02'0 0.0
2017-Apr-18 18:00N 49°09' W 123°02'0 0.0
2017-Apr-18 17:30N 49°09' W 123°02'0 0.0
2017-Apr-18 17:00N 49°09' W 123°02'0 0.0
2017-Apr-18 16:30N 49°09' W 123°02'0 0.1
2017-Apr-18 16:00N 49°09' W 123°02'0 0.0
2017-Apr-18 15:30N 49°09' W 123°02'0 0.0
2017-Apr-18 15:00N 49°09' W 123°02'0 0.0
2017-Apr-18 14:30N 49°09' W 123°02'9 9.2
2017-Apr-18 13:30N 49°07' W 123°16'511.1
2017-Apr-18 13:00N 49°02' W 123°19'713.4
2017-Apr-18 12:30N 48°55' W 123°18'4 8.3
2017-Apr-18 12:00N 48°52' W 123°21'4 8.4
2017-Apr-18 11:30N 48°47' W 123°21'4 8.9
2017-Apr-18 11:00N 48°44' W 123°24'2 4.5
2017-Apr-18 10:30N 48°41' W 123°24'0 0.0
2017-Apr-18 10:00N 48°41' W 123°24'0 0.0
2017-Apr-18 09:30N 48°41' W 123°24'2 3.0
2017-Apr-18 09:01N 48°42' W 123°22'714.5
2017-Apr-18 08:30N 48°49' W 123°21'612.0
2017-Apr-18 08:01N 48°55' W 123°18'714.7
2017-Apr-18 07:31N 49°02' W 123°21'612.0
2017-Apr-18 07:00N 49°07' W 123°16'510.1
2017-Apr-18 06:30N 49°07' W 123°09'5 9.7
2017-Apr-18 06:00N 49°09' W 123°02'0 0.1
2017-Apr-18 05:30N 49°09' W 123°02'0 0.2
2017-Apr-18 05:00N 49°09' W 123°02'0 0.0
2017-Apr-18 04:30N 49°09' W 123°02'0 0.0
2017-Apr-18 04:00N 49°09' W 123°02'0 0.0
2017-Apr-18 03:30N 49°09' W 123°02'0 0.0
2017-Apr-18 03:00N 49°09' W 123°02'0 0.0
2017-Apr-18 02:30N 49°09' W 123°02'0 0.0
2017-Apr-18 02:00N 49°09' W 123°02'0 0.0
2017-Apr-18 01:30N 49°09' W 123°02'0 0.0
2017-Apr-18 01:00N 49°09' W 123°02'0 0.0
2017-Apr-18 00:30N 49°09' W 123°02'0 0.0
2017-Apr-18 00:00N 49°09' W 123°02'0 0.0
2017-Apr-17 23:30N 49°09' W 123°02'0 0.0
2017-Apr-17 23:00N 49°09' W 123°02'0 0.0
2017-Apr-17 22:30N 49°09' W 123°02'0 0.0
2017-Apr-17 22:00N 49°09' W 123°02'0 0.0
2017-Apr-17 21:30N 49°09' W 123°02'0 0.0
2017-Apr-17 21:00N 49°09' W 123°02'0 0.0
2017-Apr-17 20:30N 49°09' W 123°02'0 0.0
2017-Apr-17 20:00N 49°09' W 123°02'0 0.0
2017-Apr-17 19:30N 49°09' W 123°02'0 0.0
2017-Apr-17 19:00N 49°09' W 123°02'0 0.0
2017-Apr-17 18:30N 49°09' W 123°02'0 0.0
2017-Apr-17 18:00N 49°09' W 123°02'0 0.0
2017-Apr-17 17:30N 49°09' W 123°02'0 0.0
2017-Apr-17 17:00N 49°09' W 123°02'0 0.0
2017-Apr-17 16:30N 49°09' W 123°02'0 0.0
2017-Apr-17 16:00N 49°09' W 123°02'0 0.0
2017-Apr-17 15:30N 49°09' W 123°02'0 0.0
2017-Apr-17 15:00N 49°09' W 123°02'0 0.0
2017-Apr-17 14:00N 49°09' W 123°02'0 0.0
2017-Apr-17 13:30N 49°09' W 123°02'0 0.0
2017-Apr-17 13:00N 49°09' W 123°02'0 0.0
2017-Apr-17 12:30N 49°09' W 123°02'0 0.0
2017-Apr-17 12:00N 49°09' W 123°02'0 0.0
2017-Apr-17 11:30N 49°09' W 123°02'0 0.0
2017-Apr-17 11:00N 49°09' W 123°02'0 0.0
2017-Apr-17 10:30N 49°09' W 123°02'0 0.0
2017-Apr-17 10:00N 49°09' W 123°02'0 0.0
2017-Apr-17 09:30N 49°09' W 123°02'0 0.0
2017-Apr-17 09:00N 49°09' W 123°02'0 0.0
2017-Apr-17 08:30N 49°09' W 123°02'0 0.0
2017-Apr-17 08:00N 49°09' W 123°02'0 0.0
2017-Apr-17 07:30N 49°09' W 123°02'0 0.0
2017-Apr-17 07:00N 49°09' W 123°02'0 0.0
2017-Apr-17 06:30N 49°09' W 123°02'0 0.0
2017-Apr-17 06:00N 49°09' W 123°02'0 0.0
2017-Apr-17 05:30N 49°09' W 123°02'0 0.0
2017-Apr-17 05:00N 49°09' W 123°02'0 0.0
2017-Apr-17 04:30N 49°09' W 123°02'0 0.0
2017-Apr-17 04:00N 49°09' W 123°02'0 0.0
2017-Apr-17 03:30N 49°09' W 123°02'0 0.0
2017-Apr-17 03:00N 49°09' W 123°02'0 0.0
2017-Apr-17 02:30N 49°09' W 123°02'0 0.0
2017-Apr-17 02:00N 49°09' W 123°02'0 0.0
2017-Apr-17 01:30N 49°09' W 123°02'0 0.0
2017-Apr-17 01:00N 49°09' W 123°02'0 0.0
2017-Apr-17 00:30N 49°09' W 123°02'0 0.0
2017-Apr-17 00:00N 49°09' W 123°02'0 0.0
2017-Apr-16 23:30N 49°09' W 123°02'0 0.0
2017-Apr-16 23:00N 49°09' W 123°02'0 0.0
2017-Apr-16 22:30N 49°09' W 123°02'0 0.0
2017-Apr-16 22:00N 49°09' W 123°02'0 0.0
2017-Apr-16 21:30N 49°09' W 123°02'0 0.0
2017-Apr-16 21:00N 49°09' W 123°02'0 0.0
2017-Apr-16 20:30N 49°09' W 123°02'0 0.0
2017-Apr-16 20:00N 49°09' W 123°02'0 0.0
2017-Apr-16 19:30N 49°09' W 123°02'0 0.0
2017-Apr-16 19:00N 49°09' W 123°02'0 0.0
2017-Apr-16 18:30N 49°09' W 123°02'0 0.0
2017-Apr-16 18:00N 49°09' W 123°02'0 0.0
2017-Apr-16 17:30N 49°09' W 123°02'0 0.0
2017-Apr-16 17:00N 49°09' W 123°02'0 0.0
2017-Apr-16 16:30N 49°09' W 123°02'0 0.0
2017-Apr-16 16:00N 49°09' W 123°02'0 0.0
2017-Apr-16 15:30N 49°09' W 123°02'0 0.0
2017-Apr-16 15:00N 49°09' W 123°02'0 0.0
2017-Apr-16 14:00N 49°09' W 123°02'0 0.0
2017-Apr-16 13:30N 49°09' W 123°02'0 0.0
2017-Apr-16 13:00N 49°09' W 123°02'0 0.0
2017-Apr-16 12:30N 49°09' W 123°02'0 0.0
2017-Apr-16 12:00N 49°09' W 123°02'0 0.0
2017-Apr-16 11:30N 49°09' W 123°02'0 0.0
2017-Apr-16 11:00N 49°09' W 123°02'0 0.0
2017-Apr-16 10:30N 49°09' W 123°02'0 0.0
2017-Apr-16 10:00N 49°09' W 123°02'0 0.0
2017-Apr-16 09:30N 49°09' W 123°02'0 0.0
2017-Apr-16 09:00N 49°09' W 123°02'0 0.0
2017-Apr-16 08:30N 49°09' W 123°02'0 0.0
2017-Apr-16 08:00N 49°09' W 123°02'0 0.0
2017-Apr-16 07:30N 49°09' W 123°02'0 0.0
2017-Apr-16 07:00N 49°09' W 123°02'0 0.0
2017-Apr-16 06:30N 49°09' W 123°02'0 0.0
2017-Apr-16 06:00N 49°09' W 123°02'0 0.0
2017-Apr-16 05:30N 49°09' W 123°02'0 0.0
2017-Apr-16 05:00N 49°09' W 123°02'0 0.0
2017-Apr-16 04:30N 49°09' W 123°02'0 0.0
2017-Apr-16 04:00N 49°09' W 123°02'0 0.0
2017-Apr-16 03:30N 49°09' W 123°02'0 0.0
2017-Apr-16 03:00N 49°09' W 123°02'0 0.0
2017-Apr-16 02:30N 49°09' W 123°02'0 0.0
2017-Apr-16 02:00N 49°09' W 123°02'0 0.0
2017-Apr-16 01:30N 49°09' W 123°02'0 0.0
2017-Apr-16 01:00N 49°09' W 123°02'0 0.0
2017-Apr-16 00:30N 49°09' W 123°02'0 0.0
2017-Apr-16 00:00N 49°09' W 123°02'0 0.0
2017-Apr-15 23:30N 49°09' W 123°02'0 0.0
2017-Apr-15 23:00N 49°09' W 123°02'0 0.0
2017-Apr-15 22:30N 49°09' W 123°02'0 0.0
2017-Apr-15 22:00N 49°09' W 123°02'0 0.0
2017-Apr-15 21:30N 49°09' W 123°02'0 0.0
2017-Apr-15 21:00N 49°09' W 123°02'0 0.0
2017-Apr-15 20:30N 49°09' W 123°02'0 0.0
2017-Apr-15 20:00N 49°09' W 123°02'0 0.0
2017-Apr-15 19:30N 49°09' W 123°02'0 0.0
2017-Apr-15 19:00N 49°09' W 123°02'0 0.0
2017-Apr-15 18:30N 49°09' W 123°02'0 0.0
2017-Apr-15 18:00N 49°09' W 123°02'0 0.0
2017-Apr-15 17:30N 49°09' W 123°02'0 0.0
2017-Apr-15 17:00N 49°09' W 123°02'0 0.0
2017-Apr-15 16:30N 49°09' W 123°02'0 0.0
2017-Apr-15 16:00N 49°09' W 123°02'0 0.0
2017-Apr-15 15:30N 49°09' W 123°02'0 0.0
2017-Apr-15 15:00N 49°09' W 123°02'0 0.0
2017-Apr-15 14:30N 49°09' W 123°02'0 0.0
2017-Apr-15 13:30N 49°09' W 123°02'0 0.0
2017-Apr-15 13:00N 49°09' W 123°02'0 0.0
2017-Apr-15 12:30N 49°09' W 123°02'0 0.0
2017-Apr-15 12:00N 49°09' W 123°02'0 0.0
2017-Apr-15 11:30N 49°09' W 123°02'0 0.0
2017-Apr-15 11:00N 49°09' W 123°02'0 0.0
2017-Apr-15 10:30N 49°09' W 123°02'0 0.0
2017-Apr-15 10:00N 49°09' W 123°02'0 0.0
2017-Apr-15 09:30N 49°09' W 123°02'0 0.0
2017-Apr-15 09:00N 49°09' W 123°02'0 0.0
2017-Apr-15 08:30N 49°09' W 123°02'0 0.0
2017-Apr-15 08:00N 49°09' W 123°02'0 0.0
2017-Apr-15 07:30N 49°09' W 123°02'0 0.0
2017-Apr-15 07:00N 49°09' W 123°02'0 0.0
2017-Apr-15 06:30N 49°09' W 123°02'0 0.0
2017-Apr-15 06:00N 49°09' W 123°02'0 0.0
2017-Apr-15 05:30N 49°09' W 123°02'0 0.0
2017-Apr-15 05:00N 49°09' W 123°02'0 0.0
2017-Apr-15 04:30N 49°09' W 123°02'0 0.0
2017-Apr-15 04:00N 49°09' W 123°02'0 0.0
2017-Apr-15 03:30N 49°09' W 123°02'0 0.0
2017-Apr-15 03:00N 49°09' W 123°02'0 0.0
2017-Apr-15 02:30N 49°09' W 123°02'0 0.0
2017-Apr-15 02:00N 49°09' W 123°02'0 0.0
2017-Apr-15 01:30N 49°09' W 123°02'0 0.0
2017-Apr-15 01:00N 49°09' W 123°02'0 0.0
2017-Apr-15 00:30N 49°09' W 123°02'0 0.0
2017-Apr-15 00:00N 49°09' W 123°02'0 0.0
2017-Apr-14 23:30N 49°09' W 123°02'0 0.0
2017-Apr-14 23:00N 49°09' W 123°02'0 0.0
2017-Apr-14 22:30N 49°09' W 123°02'0 0.0
2017-Apr-14 22:00N 49°09' W 123°02'0 0.0
2017-Apr-14 21:30N 49°09' W 123°02'0 0.0
2017-Apr-14 21:00N 49°09' W 123°02'0 0.0
2017-Apr-14 20:30N 49°09' W 123°02'0 0.0
2017-Apr-14 20:00N 49°09' W 123°02'0 0.0
2017-Apr-14 19:30N 49°09' W 123°02'0 0.0
2017-Apr-14 19:00N 49°09' W 123°02'0 0.0
2017-Apr-14 18:30N 49°09' W 123°02'0 0.0
2017-Apr-14 18:00N 49°09' W 123°02'0 0.0
2017-Apr-14 17:30N 49°09' W 123°02'0 0.0
2017-Apr-14 17:00N 49°09' W 123°02'0 0.0
2017-Apr-14 16:30N 49°09' W 123°02'0 0.0
2017-Apr-14 16:00N 49°09' W 123°02'0 0.0
2017-Apr-14 15:30N 49°09' W 123°02'0 0.0
2017-Apr-14 15:00N 49°09' W 123°02'0 0.1
2017-Apr-14 14:30N 49°09' W 123°02'1 0.9
2017-Apr-14 13:30N 49°08' W 123°03'611.7
2017-Apr-14 13:00N 49°07' W 123°12'612.3
2017-Apr-14 12:30N 49°04' W 123°20'815.8
2017-Apr-14 12:01N 48°56' W 123°19'612.6
2017-Apr-14 11:30N 48°50' W 123°21'714.6
2017-Apr-14 11:01N 48°43' W 123°24'2 3.9
2017-Apr-14 10:30N 48°41' W 123°24'0 0.0
2017-Apr-14 10:00N 48°41' W 123°24'0 0.0
2017-Apr-14 09:30N 48°41' W 123°24'0 0.1
2017-Apr-14 09:00N 48°41' W 123°24'5 9.2
2017-Apr-14 08:30N 48°45' W 123°21'612.8
2017-Apr-14 08:00N 48°52' W 123°19'714.9
2017-Apr-14 07:30N 48°59' W 123°18'714.6
2017-Apr-14 07:00N 49°06' W 123°18'714.0
2017-Apr-14 06:30N 49°07' W 123°07'4 8.3
2017-Apr-14 06:01N 49°09' W 123°02'0 0.0
2017-Apr-14 05:31N 49°09' W 123°02'0 0.0
2017-Apr-14 05:01N 49°09' W 123°02'0 0.1
2017-Apr-14 04:30N 49°09' W 123°02'0 0.0
2017-Apr-14 04:00N 49°09' W 123°02'0 0.0
2017-Apr-14 03:30N 49°09' W 123°02'0 0.0
2017-Apr-14 03:01N 49°09' W 123°02'0 0.0
2017-Apr-14 02:30N 49°09' W 123°02'0 0.0
2017-Apr-14 02:00N 49°09' W 123°02'0 0.0
2017-Apr-14 01:30N 49°09' W 123°02'0 0.0
2017-Apr-14 01:01N 49°09' W 123°02'0 0.0
2017-Apr-14 00:31N 49°09' W 123°02'0 0.0
2017-Apr-14 00:01N 49°09' W 123°02'0 0.0
2017-Apr-13 23:31N 49°09' W 123°02'0 0.0
2017-Apr-13 23:00N 49°09' W 123°02'0 0.0
2017-Apr-13 22:31N 49°09' W 123°02'0 0.0
2017-Apr-13 22:00N 49°09' W 123°02'0 0.0
2017-Apr-13 21:30N 49°09' W 123°02'0 0.0
2017-Apr-13 21:00N 49°09' W 123°02'0 0.0
2017-Apr-13 20:31N 49°09' W 123°02'0 0.0
2017-Apr-13 20:00N 49°09' W 123°02'0 0.0
2017-Apr-13 19:31N 49°09' W 123°02'0 0.0
2017-Apr-13 19:01N 49°09' W 123°02'0 0.0
2017-Apr-13 18:31N 49°09' W 123°02'0 0.0
2017-Apr-13 18:01N 49°09' W 123°02'0 0.0
2017-Apr-13 17:31N 49°09' W 123°02'0 0.1
2017-Apr-13 17:01N 49°09' W 123°02'0 0.0
2017-Apr-13 16:31N 49°09' W 123°02'0 0.0
2017-Apr-13 16:01N 49°09' W 123°02'0 0.0
2017-Apr-13 15:31N 49°09' W 123°02'0 0.0
2017-Apr-13 15:00N 49°09' W 123°02'0 0.0
2017-Apr-13 14:30N 49°09' W 123°02'4 4.3
2017-Apr-13 13:30N 49°06' W 123°08'612.9
2017-Apr-13 13:00N 49°06' W 123°18'714.1
2017-Apr-13 12:30N 48°59' W 123°19'815.3
2017-Apr-13 12:00N 48°52' W 123°19'611.8
2017-Apr-13 11:30N 48°46' W 123°21'510.6
2017-Apr-13 11:00N 48°41' W 123°24'0 0.0
2017-Apr-13 10:30N 48°41' W 123°24'0 0.0
2017-Apr-13 10:00N 48°41' W 123°24'0 0.0
2017-Apr-13 09:30N 48°41' W 123°24'0 0.0
2017-Apr-13 09:00N 48°41' W 123°24'4 7.9
2017-Apr-13 08:30N 48°44' W 123°21'714.5
2017-Apr-13 08:01N 48°52' W 123°21'612.4
2017-Apr-13 07:31N 48°58' W 123°18'815.0
2017-Apr-13 07:01N 49°05' W 123°20'611.9
2017-Apr-13 06:30N 49°07' W 123°11'612.3
2017-Apr-13 06:00N 49°09' W 123°02'0 0.1
2017-Apr-13 05:30N 49°09' W 123°02'0 0.0
2017-Apr-13 05:00N 49°09' W 123°02'0 0.1
2017-Apr-13 04:30N 49°09' W 123°02'0 0.0
2017-Apr-13 04:00N 49°09' W 123°02'0 0.0
2017-Apr-13 03:30N 49°09' W 123°02'0 0.0
2017-Apr-13 03:00N 49°09' W 123°02'0 0.0
2017-Apr-13 02:30N 49°09' W 123°02'0 0.0
2017-Apr-13 02:00N 49°09' W 123°02'0 0.0
2017-Apr-13 01:30N 49°09' W 123°02'0 0.0
2017-Apr-13 01:00N 49°09' W 123°02'0 0.0
2017-Apr-13 00:30N 49°09' W 123°02'0 0.0
2017-Apr-13 00:00N 49°09' W 123°02'0 0.0
2017-Apr-12 23:30N 49°09' W 123°02'0 0.0
2017-Apr-12 23:00N 49°09' W 123°02'0 0.0
2017-Apr-12 22:30N 49°09' W 123°02'0 0.0
2017-Apr-12 22:00N 49°09' W 123°02'0 0.0
2017-Apr-12 21:30N 49°09' W 123°02'0 0.0
2017-Apr-12 21:00N 49°09' W 123°02'0 0.0
2017-Apr-12 20:30N 49°09' W 123°02'0 0.0
2017-Apr-12 20:00N 49°09' W 123°02'0 0.0
2017-Apr-12 19:30N 49°09' W 123°02'0 0.0
2017-Apr-12 19:00N 49°09' W 123°02'0 0.0
2017-Apr-12 18:30N 49°09' W 123°02'0 0.0
2017-Apr-12 18:00N 49°09' W 123°02'0 0.0
2017-Apr-12 17:30N 49°09' W 123°02'0 0.0
2017-Apr-12 17:00N 49°09' W 123°02'0 0.0
2017-Apr-12 16:30N 49°09' W 123°02'0 0.2
2017-Apr-12 16:00N 49°09' W 123°02'0 0.1
2017-Apr-12 15:30N 49°09' W 123°02'  

Dump ship's entire track history